sensor_id;sensor_type;location;lat;lon;timestamp;P1;durP1;ratioP1;P2;durP2;ratioP2
76576;SDS011;65441;44.748;37.600;2023-03-13T00:01:32;3.72;;;1.05;;
76576;SDS011;65441;44.748;37.600;2023-03-13T00:04:05;2.80;;;0.93;;
76576;SDS011;65441;44.748;37.600;2023-03-13T00:06:35;3.17;;;1.13;;
76576;SDS011;65441;44.748;37.600;2023-03-13T00:09:07;2.30;;;0.88;;
76576;SDS011;65441;44.748;37.600;2023-03-13T00:11:38;3.40;;;1.20;;
76576;SDS011;65441;44.748;37.600;2023-03-13T00:14:07;3.47;;;1.20;;
76576;SDS011;65441;44.748;37.600;2023-03-13T00:16:36;4.22;;;1.38;;
76576;SDS011;65441;44.748;37.600;2023-03-13T00:19:06;4.00;;;1.30;;
76576;SDS011;65441;44.748;37.600;2023-03-13T00:21:35;3.75;;;1.23;;
76576;SDS011;65441;44.748;37.600;2023-03-13T00:24:08;3.97;;;1.30;;
76576;SDS011;65441;44.748;37.600;2023-03-13T00:26:38;2.65;;;1.05;;
76576;SDS011;65441;44.748;37.600;2023-03-13T00:29:07;4.00;;;1.33;;
76576;SDS011;65441;44.748;37.600;2023-03-13T00:31:37;5.80;;;1.63;;
76576;SDS011;65441;44.748;37.600;2023-03-13T00:34:06;4.55;;;1.63;;
76576;SDS011;65441;44.748;37.600;2023-03-13T00:36:37;4.68;;;1.73;;
76576;SDS011;65441;44.748;37.600;2023-03-13T00:39:08;4.47;;;1.65;;
76576;SDS011;65441;44.748;37.600;2023-03-13T00:41:37;5.55;;;1.60;;
76576;SDS011;65441;44.748;37.600;2023-03-13T00:44:06;5.03;;;1.50;;
76576;SDS011;65441;44.748;37.600;2023-03-13T00:46:35;3.75;;;1.20;;
76576;SDS011;65441;44.748;37.600;2023-03-13T00:49:05;5.45;;;1.85;;
76576;SDS011;65441;44.748;37.600;2023-03-13T00:51:34;5.72;;;1.88;;
76576;SDS011;65441;44.748;37.600;2023-03-13T00:54:03;5.18;;;1.70;;
76576;SDS011;65441;44.748;37.600;2023-03-13T00:56:34;5.45;;;1.92;;
76576;SDS011;65441;44.748;37.600;2023-03-13T00:59:04;4.80;;;1.83;;
76576;SDS011;65441;44.748;37.600;2023-03-13T01:01:34;5.05;;;1.77;;
76576;SDS011;65441;44.748;37.600;2023-03-13T01:04:04;4.35;;;1.67;;
76576;SDS011;65441;44.748;37.600;2023-03-13T01:06:35;4.10;;;1.65;;
76576;SDS011;65441;44.748;37.600;2023-03-13T01:09:09;5.20;;;1.88;;
76576;SDS011;65441;44.748;37.600;2023-03-13T01:11:41;6.00;;;2.45;;
76576;SDS011;65441;44.748;37.600;2023-03-13T01:14:13;4.30;;;1.58;;
76576;SDS011;65441;44.748;37.600;2023-03-13T01:16:44;8.35;;;2.13;;
76576;SDS011;65441;44.748;37.600;2023-03-13T01:19:16;5.88;;;1.90;;
76576;SDS011;65441;44.748;37.600;2023-03-13T01:21:46;5.13;;;1.98;;
76576;SDS011;65441;44.748;37.600;2023-03-13T01:24:15;8.90;;;2.10;;
76576;SDS011;65441;44.748;37.600;2023-03-13T01:26:47;6.47;;;2.30;;
76576;SDS011;65441;44.748;37.600;2023-03-13T01:29:16;6.30;;;2.22;;
76576;SDS011;65441;44.748;37.600;2023-03-13T01:31:46;5.90;;;2.13;;
76576;SDS011;65441;44.748;37.600;2023-03-13T01:34:17;6.95;;;2.40;;
76576;SDS011;65441;44.748;37.600;2023-03-13T01:36:46;6.18;;;2.25;;
76576;SDS011;65441;44.748;37.600;2023-03-13T01:39:18;5.60;;;2.33;;
76576;SDS011;65441;44.748;37.600;2023-03-13T01:41:49;5.57;;;2.33;;
76576;SDS011;65441;44.748;37.600;2023-03-13T01:44:20;6.28;;;2.25;;
76576;SDS011;65441;44.748;37.600;2023-03-13T01:46:51;5.95;;;2.22;;
76576;SDS011;65441;44.748;37.600;2023-03-13T01:49:24;5.47;;;2.20;;
76576;SDS011;65441;44.748;37.600;2023-03-13T01:52:03;6.03;;;2.08;;
76576;SDS011;65441;44.748;37.600;2023-03-13T01:54:42;5.03;;;2.15;;
76576;SDS011;65441;44.748;37.600;2023-03-13T01:57:19;5.38;;;1.95;;
76576;SDS011;65441;44.748;37.600;2023-03-13T01:59:55;4.88;;;1.98;;
76576;SDS011;65441;44.748;37.600;2023-03-13T02:02:33;5.93;;;2.15;;
76576;SDS011;65441;44.748;37.600;2023-03-13T02:05:04;4.72;;;1.92;;
76576;SDS011;65441;44.748;37.600;2023-03-13T02:07:36;6.57;;;2.13;;
76576;SDS011;65441;44.748;37.600;2023-03-13T02:10:09;4.68;;;1.60;;
76576;SDS011;65441;44.748;37.600;2023-03-13T02:12:43;6.63;;;1.95;;
76576;SDS011;65441;44.748;37.600;2023-03-13T02:15:14;5.82;;;2.28;;
76576;SDS011;65441;44.748;37.600;2023-03-13T02:17:46;6.72;;;2.20;;
76576;SDS011;65441;44.748;37.600;2023-03-13T02:20:18;6.15;;;2.17;;
76576;SDS011;65441;44.748;37.600;2023-03-13T02:22:50;5.60;;;2.22;;
76576;SDS011;65441;44.748;37.600;2023-03-13T02:25:30;5.10;;;2.10;;
76576;SDS011;65441;44.748;37.600;2023-03-13T02:28:08;5.18;;;1.73;;
76576;SDS011;65441;44.748;37.600;2023-03-13T02:30:42;4.88;;;1.88;;
76576;SDS011;65441;44.748;37.600;2023-03-13T02:33:13;7.40;;;2.30;;
76576;SDS011;65441;44.748;37.600;2023-03-13T02:35:43;5.90;;;2.35;;
76576;SDS011;65441;44.748;37.600;2023-03-13T02:38:16;7.18;;;2.25;;
76576;SDS011;65441;44.748;37.600;2023-03-13T02:40:51;7.05;;;2.40;;
76576;SDS011;65441;44.748;37.600;2023-03-13T02:43:24;5.88;;;2.38;;
76576;SDS011;65441;44.748;37.600;2023-03-13T02:46:03;7.35;;;2.28;;
76576;SDS011;65441;44.748;37.600;2023-03-13T02:48:39;7.47;;;2.40;;
76576;SDS011;65441;44.748;37.600;2023-03-13T02:51:11;10.73;;;2.70;;
76576;SDS011;65441;44.748;37.600;2023-03-13T02:53:45;8.43;;;2.20;;
76576;SDS011;65441;44.748;37.600;2023-03-13T02:56:19;6.35;;;2.65;;
76576;SDS011;65441;44.748;37.600;2023-03-13T02:58:51;8.38;;;2.88;;
76576;SDS011;65441;44.748;37.600;2023-03-13T03:01:24;5.53;;;2.40;;
76576;SDS011;65441;44.748;37.600;2023-03-13T03:03:53;6.55;;;2.80;;
76576;SDS011;65441;44.748;37.600;2023-03-13T03:06:24;6.88;;;2.88;;
76576;SDS011;65441;44.748;37.600;2023-03-13T03:08:54;6.90;;;2.40;;
76576;SDS011;65441;44.748;37.600;2023-03-13T03:11:26;5.72;;;2.20;;
76576;SDS011;65441;44.748;37.600;2023-03-13T03:14:00;5.63;;;2.10;;
76576;SDS011;65441;44.748;37.600;2023-03-13T03:16:35;5.00;;;2.20;;
76576;SDS011;65441;44.748;37.600;2023-03-13T03:19:05;6.38;;;2.42;;
76576;SDS011;65441;44.748;37.600;2023-03-13T03:21:35;5.20;;;1.83;;
76576;SDS011;65441;44.748;37.600;2023-03-13T03:24:04;5.57;;;2.10;;
76576;SDS011;65441;44.748;37.600;2023-03-13T03:26:35;4.90;;;1.90;;
76576;SDS011;65441;44.748;37.600;2023-03-13T03:29:11;6.85;;;2.22;;
76576;SDS011;65441;44.748;37.600;2023-03-13T03:31:41;4.15;;;1.55;;
76576;SDS011;65441;44.748;37.600;2023-03-13T03:34:20;6.70;;;2.20;;
76576;SDS011;65441;44.748;37.600;2023-03-13T03:36:50;8.55;;;2.35;;
76576;SDS011;65441;44.748;37.600;2023-03-13T03:39:19;7.43;;;2.78;;
76576;SDS011;65441;44.748;37.600;2023-03-13T03:41:50;7.93;;;2.30;;
76576;SDS011;65441;44.748;37.600;2023-03-13T03:44:19;6.72;;;2.40;;
76576;SDS011;65441;44.748;37.600;2023-03-13T03:46:56;6.03;;;2.47;;
76576;SDS011;65441;44.748;37.600;2023-03-13T03:49:27;11.85;;;3.25;;
76576;SDS011;65441;44.748;37.600;2023-03-13T03:51:56;7.20;;;2.97;;
76576;SDS011;65441;44.748;37.600;2023-03-13T03:54:31;9.43;;;2.83;;
76576;SDS011;65441;44.748;37.600;2023-03-13T03:57:02;7.07;;;2.85;;
76576;SDS011;65441;44.748;37.600;2023-03-13T03:59:33;4.80;;;2.00;;
76576;SDS011;65441;44.748;37.600;2023-03-13T04:02:04;6.10;;;2.40;;
76576;SDS011;65441;44.748;37.600;2023-03-13T04:04:35;6.72;;;2.78;;
76576;SDS011;65441;44.748;37.600;2023-03-13T04:07:27;6.35;;;2.75;;
76576;SDS011;65441;44.748;37.600;2023-03-13T04:09:56;5.45;;;2.38;;
76576;SDS011;65441;44.748;37.600;2023-03-13T04:12:33;4.97;;;2.00;;
76576;SDS011;65441;44.748;37.600;2023-03-13T04:15:03;5.70;;;2.60;;
76576;SDS011;65441;44.748;37.600;2023-03-13T04:17:33;9.80;;;2.40;;
76576;SDS011;65441;44.748;37.600;2023-03-13T04:20:02;5.97;;;2.45;;
76576;SDS011;65441;44.748;37.600;2023-03-13T04:22:33;6.70;;;2.50;;
76576;SDS011;65441;44.748;37.600;2023-03-13T04:25:03;6.75;;;2.60;;
76576;SDS011;65441;44.748;37.600;2023-03-13T04:27:34;5.60;;;2.40;;
76576;SDS011;65441;44.748;37.600;2023-03-13T04:30:05;5.95;;;1.95;;
76576;SDS011;65441;44.748;37.600;2023-03-13T04:32:38;6.38;;;1.92;;
76576;SDS011;65441;44.748;37.600;2023-03-13T04:35:08;3.90;;;1.55;;
76576;SDS011;65441;44.748;37.600;2023-03-13T04:38:00;5.20;;;1.73;;
76576;SDS011;65441;44.748;37.600;2023-03-13T04:40:35;4.93;;;1.73;;
76576;SDS011;65441;44.748;37.600;2023-03-13T04:43:24;5.10;;;1.80;;
76576;SDS011;65441;44.748;37.600;2023-03-13T04:46:06;4.85;;;1.88;;
76576;SDS011;65441;44.748;37.600;2023-03-13T04:49:08;6.85;;;1.67;;
76576;SDS011;65441;44.748;37.600;2023-03-13T04:51:55;4.78;;;1.63;;
76576;SDS011;65441;44.748;37.600;2023-03-13T04:54:56;4.95;;;1.80;;
76576;SDS011;65441;44.748;37.600;2023-03-13T05:00:40;5.57;;;1.90;;
76576;SDS011;65441;44.748;37.600;2023-03-13T05:03:27;4.95;;;1.70;;
76576;SDS011;65441;44.748;37.600;2023-03-13T05:06:25;8.05;;;1.58;;
76576;SDS011;65441;44.748;37.600;2023-03-13T05:09:04;3.55;;;1.50;;
76576;SDS011;65441;44.748;37.600;2023-03-13T05:11:54;4.72;;;1.55;;
76576;SDS011;65441;44.748;37.600;2023-03-13T05:14:44;4.82;;;1.30;;
76576;SDS011;65441;44.748;37.600;2023-03-13T05:17:33;4.88;;;1.40;;
76576;SDS011;65441;44.748;37.600;2023-03-13T05:20:23;3.67;;;1.13;;
76576;SDS011;65441;44.748;37.600;2023-03-13T05:23:00;4.30;;;1.30;;
76576;SDS011;65441;44.748;37.600;2023-03-13T05:25:55;4.18;;;1.30;;
76576;SDS011;65441;44.748;37.600;2023-03-13T05:28:30;3.80;;;1.30;;
76576;SDS011;65441;44.748;37.600;2023-03-13T05:31:31;5.15;;;1.10;;
76576;SDS011;65441;44.748;37.600;2023-03-13T05:34:20;5.50;;;1.10;;
76576;SDS011;65441;44.748;37.600;2023-03-13T05:36:55;4.60;;;1.33;;
76576;SDS011;65441;44.748;37.600;2023-03-13T05:39:44;3.92;;;1.20;;
76576;SDS011;65441;44.748;37.600;2023-03-13T05:42:22;4.05;;;1.00;;
76576;SDS011;65441;44.748;37.600;2023-03-13T05:45:12;3.33;;;1.20;;
76576;SDS011;65441;44.748;37.600;2023-03-13T05:48:01;2.00;;;0.80;;
76576;SDS011;65441;44.748;37.600;2023-03-13T05:50:35;3.83;;;1.00;;
76576;SDS011;65441;44.748;37.600;2023-03-13T05:56:05;4.07;;;0.90;;
76576;SDS011;65441;44.748;37.600;2023-03-13T05:58:53;3.85;;;1.30;;
76576;SDS011;65441;44.748;37.600;2023-03-13T06:01:28;4.57;;;1.10;;
76576;SDS011;65441;44.748;37.600;2023-03-13T06:04:06;4.90;;;1.13;;
76576;SDS011;65441;44.748;37.600;2023-03-13T06:06:38;3.03;;;0.70;;
76576;SDS011;65441;44.748;37.600;2023-03-13T06:09:08;3.95;;;0.98;;
76576;SDS011;65441;44.748;37.600;2023-03-13T06:11:38;3.35;;;1.27;;
76576;SDS011;65441;44.748;37.600;2023-03-13T06:14:07;3.15;;;1.00;;
76576;SDS011;65441;44.748;37.600;2023-03-13T06:16:48;3.33;;;0.93;;
76576;SDS011;65441;44.748;37.600;2023-03-13T06:19:20;2.95;;;0.90;;
76576;SDS011;65441;44.748;37.600;2023-03-13T06:21:51;3.22;;;1.05;;
76576;SDS011;65441;44.748;37.600;2023-03-13T06:24:21;2.97;;;0.90;;
76576;SDS011;65441;44.748;37.600;2023-03-13T06:26:50;3.42;;;0.98;;
76576;SDS011;65441;44.748;37.600;2023-03-13T06:29:19;2.88;;;0.90;;
76576;SDS011;65441;44.748;37.600;2023-03-13T06:31:49;3.15;;;1.00;;
76576;SDS011;65441;44.748;37.600;2023-03-13T06:34:19;3.13;;;0.88;;
76576;SDS011;65441;44.748;37.600;2023-03-13T06:36:48;3.28;;;1.00;;
76576;SDS011;65441;44.748;37.600;2023-03-13T06:39:18;3.28;;;0.70;;
76576;SDS011;65441;44.748;37.600;2023-03-13T06:41:48;3.53;;;0.82;;
76576;SDS011;65441;44.748;37.600;2023-03-13T06:44:17;2.97;;;0.85;;
76576;SDS011;65441;44.748;37.600;2023-03-13T06:46:47;3.05;;;1.10;;
76576;SDS011;65441;44.748;37.600;2023-03-13T06:49:17;3.78;;;1.10;;
76576;SDS011;65441;44.748;37.600;2023-03-13T06:51:46;3.30;;;1.15;;
76576;SDS011;65441;44.748;37.600;2023-03-13T06:54:20;2.40;;;0.80;;
76576;SDS011;65441;44.748;37.600;2023-03-13T06:56:49;3.70;;;1.00;;
76576;SDS011;65441;44.748;37.600;2023-03-13T06:59:18;5.13;;;0.90;;
76576;SDS011;65441;44.748;37.600;2023-03-13T07:01:47;3.63;;;1.02;;
76576;SDS011;65441;44.748;37.600;2023-03-13T07:04:16;5.78;;;1.10;;
76576;SDS011;65441;44.748;37.600;2023-03-13T07:06:45;5.38;;;0.90;;
76576;SDS011;65441;44.748;37.600;2023-03-13T07:09:14;3.78;;;0.90;;
76576;SDS011;65441;44.748;37.600;2023-03-13T07:11:47;3.13;;;0.90;;
76576;SDS011;65441;44.748;37.600;2023-03-13T07:14:16;4.78;;;1.00;;
76576;SDS011;65441;44.748;37.600;2023-03-13T07:16:44;3.85;;;1.10;;
76576;SDS011;65441;44.748;37.600;2023-03-13T07:19:16;3.67;;;1.00;;
76576;SDS011;65441;44.748;37.600;2023-03-13T07:21:45;3.28;;;1.08;;
76576;SDS011;65441;44.748;37.600;2023-03-13T07:24:15;2.30;;;0.77;;
76576;SDS011;65441;44.748;37.600;2023-03-13T07:26:44;3.97;;;1.27;;
76576;SDS011;65441;44.748;37.600;2023-03-13T07:29:14;4.07;;;1.10;;
76576;SDS011;65441;44.748;37.600;2023-03-13T07:31:43;3.85;;;0.90;;
76576;SDS011;65441;44.748;37.600;2023-03-13T07:34:12;6.50;;;1.20;;
76576;SDS011;65441;44.748;37.600;2023-03-13T07:36:41;3.20;;;0.98;;
76576;SDS011;65441;44.748;37.600;2023-03-13T07:39:10;3.45;;;1.30;;
76576;SDS011;65441;44.748;37.600;2023-03-13T07:41:39;4.72;;;1.15;;
76576;SDS011;65441;44.748;37.600;2023-03-13T07:44:08;3.83;;;1.13;;
76576;SDS011;65441;44.748;37.600;2023-03-13T07:46:38;3.45;;;1.23;;
76576;SDS011;65441;44.748;37.600;2023-03-13T07:49:07;4.35;;;1.20;;
76576;SDS011;65441;44.748;37.600;2023-03-13T07:51:36;4.05;;;1.27;;
76576;SDS011;65441;44.748;37.600;2023-03-13T07:54:06;2.55;;;0.88;;
76576;SDS011;65441;44.748;37.600;2023-03-13T07:56:35;4.85;;;0.90;;
76576;SDS011;65441;44.748;37.600;2023-03-13T07:59:04;5.32;;;1.15;;
76576;SDS011;65441;44.748;37.600;2023-03-13T08:01:33;3.05;;;1.20;;
76576;SDS011;65441;44.748;37.600;2023-03-13T08:04:04;4.00;;;1.20;;
76576;SDS011;65441;44.748;37.600;2023-03-13T08:06:33;6.30;;;1.08;;
76576;SDS011;65441;44.748;37.600;2023-03-13T08:09:03;2.45;;;0.80;;
76576;SDS011;65441;44.748;37.600;2023-03-13T08:11:32;2.35;;;0.90;;
76576;SDS011;65441;44.748;37.600;2023-03-13T08:14:02;4.90;;;1.02;;
76576;SDS011;65441;44.748;37.600;2023-03-13T08:16:31;4.28;;;0.98;;
76576;SDS011;65441;44.748;37.600;2023-03-13T08:19:02;3.55;;;1.00;;
76576;SDS011;65441;44.748;37.600;2023-03-13T08:21:33;3.72;;;1.05;;
76576;SDS011;65441;44.748;37.600;2023-03-13T08:24:03;3.17;;;1.10;;
76576;SDS011;65441;44.748;37.600;2023-03-13T08:26:34;3.63;;;0.88;;
76576;SDS011;65441;44.748;37.600;2023-03-13T08:29:05;4.28;;;1.13;;
76576;SDS011;65441;44.748;37.600;2023-03-13T08:31:37;2.85;;;0.93;;
76576;SDS011;65441;44.748;37.600;2023-03-13T08:34:11;2.17;;;0.80;;
76576;SDS011;65441;44.748;37.600;2023-03-13T08:36:41;3.50;;;1.10;;
76576;SDS011;65441;44.748;37.600;2023-03-13T08:39:11;4.45;;;1.20;;
76576;SDS011;65441;44.748;37.600;2023-03-13T08:41:41;4.18;;;1.30;;
76576;SDS011;65441;44.748;37.600;2023-03-13T08:44:10;5.88;;;1.17;;
76576;SDS011;65441;44.748;37.600;2023-03-13T08:46:46;3.05;;;0.90;;
76576;SDS011;65441;44.748;37.600;2023-03-13T08:49:17;5.03;;;0.95;;
76576;SDS011;65441;44.748;37.600;2023-03-13T08:51:46;4.68;;;0.90;;
76576;SDS011;65441;44.748;37.600;2023-03-13T08:54:16;4.13;;;1.10;;
76576;SDS011;65441;44.748;37.600;2023-03-13T08:56:45;4.38;;;1.10;;
76576;SDS011;65441;44.748;37.600;2023-03-13T08:59:14;3.90;;;1.20;;
76576;SDS011;65441;44.748;37.600;2023-03-13T09:01:43;4.28;;;1.30;;
76576;SDS011;65441;44.748;37.600;2023-03-13T09:04:13;3.47;;;0.90;;
76576;SDS011;65441;44.748;37.600;2023-03-13T09:06:43;4.10;;;1.05;;
76576;SDS011;65441;44.748;37.600;2023-03-13T09:09:12;3.63;;;1.10;;
76576;SDS011;65441;44.748;37.600;2023-03-13T09:11:41;2.53;;;0.82;;
76576;SDS011;65441;44.748;37.600;2023-03-13T09:14:10;3.42;;;1.10;;
76576;SDS011;65441;44.748;37.600;2023-03-13T09:16:40;5.32;;;1.30;;
76576;SDS011;65441;44.748;37.600;2023-03-13T09:19:10;5.38;;;1.05;;
76576;SDS011;65441;44.748;37.600;2023-03-13T09:21:40;3.53;;;0.98;;
76576;SDS011;65441;44.748;37.600;2023-03-13T09:24:10;6.72;;;1.10;;
76576;SDS011;65441;44.748;37.600;2023-03-13T09:26:39;3.95;;;1.15;;
76576;SDS011;65441;44.748;37.600;2023-03-13T09:29:08;4.38;;;1.10;;
76576;SDS011;65441;44.748;37.600;2023-03-13T09:31:37;5.78;;;1.20;;
76576;SDS011;65441;44.748;37.600;2023-03-13T09:34:07;3.10;;;0.90;;
76576;SDS011;65441;44.748;37.600;2023-03-13T09:36:36;2.03;;;0.90;;
76576;SDS011;65441;44.748;37.600;2023-03-13T09:39:05;4.00;;;1.00;;
76576;SDS011;65441;44.748;37.600;2023-03-13T09:41:37;2.75;;;1.00;;
76576;SDS011;65441;44.748;37.600;2023-03-13T09:44:11;3.20;;;0.80;;
76576;SDS011;65441;44.748;37.600;2023-03-13T09:46:47;4.88;;;1.02;;
76576;SDS011;65441;44.748;37.600;2023-03-13T09:49:28;3.03;;;1.00;;
76576;SDS011;65441;44.748;37.600;2023-03-13T09:52:06;3.35;;;1.20;;
76576;SDS011;65441;44.748;37.600;2023-03-13T09:54:42;3.17;;;0.90;;
76576;SDS011;65441;44.748;37.600;2023-03-13T09:57:21;3.78;;;1.20;;
76576;SDS011;65441;44.748;37.600;2023-03-13T09:59:55;3.38;;;1.13;;
76576;SDS011;65441;44.748;37.600;2023-03-13T10:02:27;3.88;;;1.40;;
76576;SDS011;65441;44.748;37.600;2023-03-13T10:05:07;6.30;;;1.25;;
76576;SDS011;65441;44.748;37.600;2023-03-13T10:07:43;4.95;;;1.50;;
76576;SDS011;65441;44.748;37.600;2023-03-13T10:10:14;4.25;;;1.08;;
76576;SDS011;65441;44.748;37.600;2023-03-13T10:12:46;4.90;;;1.20;;
76576;SDS011;65441;44.748;37.600;2023-03-13T10:15:27;3.78;;;1.10;;
76576;SDS011;65441;44.748;37.600;2023-03-13T10:18:07;2.88;;;1.00;;
76576;SDS011;65441;44.748;37.600;2023-03-13T10:20:41;3.58;;;1.13;;
76576;SDS011;65441;44.748;37.600;2023-03-13T10:23:13;4.75;;;1.48;;
76576;SDS011;65441;44.748;37.600;2023-03-13T10:25:46;4.15;;;1.10;;
76576;SDS011;65441;44.748;37.600;2023-03-13T10:28:18;4.85;;;1.25;;
76576;SDS011;65441;44.748;37.600;2023-03-13T10:30:48;3.80;;;1.10;;
76576;SDS011;65441;44.748;37.600;2023-03-13T10:33:23;3.35;;;1.00;;
76576;SDS011;65441;44.748;37.600;2023-03-13T10:36:01;3.00;;;0.80;;
76576;SDS011;65441;44.748;37.600;2023-03-13T10:38:44;3.58;;;1.05;;
76576;SDS011;65441;44.748;37.600;2023-03-13T10:41:19;3.35;;;1.00;;
76576;SDS011;65441;44.748;37.600;2023-03-13T10:43:59;2.97;;;0.95;;
76576;SDS011;65441;44.748;37.600;2023-03-13T10:46:32;3.58;;;1.15;;
76576;SDS011;65441;44.748;37.600;2023-03-13T10:49:03;3.78;;;1.25;;
76576;SDS011;65441;44.748;37.600;2023-03-13T10:51:40;4.38;;;1.20;;
76576;SDS011;65441;44.748;37.600;2023-03-13T10:54:18;3.65;;;1.20;;
76576;SDS011;65441;44.748;37.600;2023-03-13T10:57:06;2.63;;;1.00;;
76576;SDS011;65441;44.748;37.600;2023-03-13T10:59:41;4.50;;;1.27;;
76576;SDS011;65441;44.748;37.600;2023-03-13T11:04:48;2.83;;;1.05;;
76576;SDS011;65441;44.748;37.600;2023-03-13T11:07:20;5.20;;;1.30;;
76576;SDS011;65441;44.748;37.600;2023-03-13T11:10:00;3.67;;;1.08;;
76576;SDS011;65441;44.748;37.600;2023-03-13T11:12:38;4.40;;;1.23;;
76576;SDS011;65441;44.748;37.600;2023-03-13T11:15:14;3.03;;;1.10;;
76576;SDS011;65441;44.748;37.600;2023-03-13T11:17:48;4.45;;;1.15;;
76576;SDS011;65441;44.748;37.600;2023-03-13T11:20:24;5.22;;;1.30;;
76576;SDS011;65441;44.748;37.600;2023-03-13T11:22:59;3.92;;;1.42;;
76576;SDS011;65441;44.748;37.600;2023-03-13T11:25:41;4.07;;;1.17;;
76576;SDS011;65441;44.748;37.600;2023-03-13T11:28:18;3.95;;;1.27;;
76576;SDS011;65441;44.748;37.600;2023-03-13T11:31:01;4.20;;;1.20;;
76576;SDS011;65441;44.748;37.600;2023-03-13T11:33:35;4.88;;;1.00;;
76576;SDS011;65441;44.748;37.600;2023-03-13T11:36:14;6.75;;;1.40;;
76576;SDS011;65441;44.748;37.600;2023-03-13T11:38:49;5.50;;;1.33;;
76576;SDS011;65441;44.748;37.600;2023-03-13T11:41:35;4.38;;;1.20;;
76576;SDS011;65441;44.748;37.600;2023-03-13T11:44:18;4.63;;;1.40;;
76576;SDS011;65441;44.748;37.600;2023-03-13T11:47:04;3.92;;;1.17;;
76576;SDS011;65441;44.748;37.600;2023-03-13T11:49:53;4.10;;;1.30;;
76576;SDS011;65441;44.748;37.600;2023-03-13T11:52:36;3.60;;;1.20;;
76576;SDS011;65441;44.748;37.600;2023-03-13T11:55:21;3.08;;;1.13;;
76576;SDS011;65441;44.748;37.600;2023-03-13T11:58:00;4.88;;;1.20;;
76576;SDS011;65441;44.748;37.600;2023-03-13T12:00:43;4.85;;;1.25;;
76576;SDS011;65441;44.748;37.600;2023-03-13T12:03:17;3.38;;;1.08;;
76576;SDS011;65441;44.748;37.600;2023-03-13T12:05:54;3.28;;;1.20;;
76576;SDS011;65441;44.748;37.600;2023-03-13T12:08:25;4.07;;;1.27;;
76576;SDS011;65441;44.748;37.600;2023-03-13T12:11:03;2.70;;;0.98;;
76576;SDS011;65441;44.748;37.600;2023-03-13T12:13:36;2.97;;;1.10;;
76576;SDS011;65441;44.748;37.600;2023-03-13T12:16:08;4.30;;;1.20;;
76576;SDS011;65441;44.748;37.600;2023-03-13T12:18:43;4.63;;;1.10;;
76576;SDS011;65441;44.748;37.600;2023-03-13T12:21:16;3.45;;;0.95;;
76576;SDS011;65441;44.748;37.600;2023-03-13T12:23:49;4.60;;;1.25;;
76576;SDS011;65441;44.748;37.600;2023-03-13T12:26:26;3.55;;;1.20;;
76576;SDS011;65441;44.748;37.600;2023-03-13T12:29:05;4.10;;;1.27;;
76576;SDS011;65441;44.748;37.600;2023-03-13T12:31:44;3.30;;;1.13;;
76576;SDS011;65441;44.748;37.600;2023-03-13T12:34:21;4.50;;;1.30;;
76576;SDS011;65441;44.748;37.600;2023-03-13T12:36:55;4.95;;;1.30;;
76576;SDS011;65441;44.748;37.600;2023-03-13T12:39:33;10.35;;;1.33;;
76576;SDS011;65441;44.748;37.600;2023-03-13T12:42:09;3.55;;;1.40;;
76576;SDS011;65441;44.748;37.600;2023-03-13T12:44:46;5.53;;;1.40;;
76576;SDS011;65441;44.748;37.600;2023-03-13T12:47:15;3.15;;;1.17;;
76576;SDS011;65441;44.748;37.600;2023-03-13T12:52:53;3.70;;;1.40;;
76576;SDS011;65441;44.748;37.600;2023-03-13T12:58:38;4.25;;;1.20;;
76576;SDS011;65441;44.748;37.600;2023-03-13T13:01:13;5.60;;;1.20;;
76576;SDS011;65441;44.748;37.600;2023-03-13T13:03:52;3.45;;;1.00;;
76576;SDS011;65441;44.748;37.600;2023-03-13T13:06:25;3.60;;;1.30;;
76576;SDS011;65441;44.748;37.600;2023-03-13T13:09:02;6.28;;;1.17;;
76576;SDS011;65441;44.748;37.600;2023-03-13T13:11:47;4.68;;;1.33;;
76576;SDS011;65441;44.748;37.600;2023-03-13T13:17:34;4.93;;;1.17;;
76576;SDS011;65441;44.748;37.600;2023-03-13T13:23:40;3.60;;;1.30;;
76576;SDS011;65441;44.748;37.600;2023-03-13T13:32:39;3.50;;;1.38;;
76576;SDS011;65441;44.748;37.600;2023-03-13T13:35:20;3.88;;;1.48;;
76576;SDS011;65441;44.748;37.600;2023-03-13T13:41:04;3.55;;;1.20;;
76576;SDS011;65441;44.748;37.600;2023-03-13T13:43:48;4.63;;;1.50;;
76576;SDS011;65441;44.748;37.600;2023-03-13T13:46:39;5.28;;;1.35;;
76576;SDS011;65441;44.748;37.600;2023-03-13T13:49:13;4.70;;;1.20;;
76576;SDS011;65441;44.748;37.600;2023-03-13T13:55:00;8.38;;;1.88;;
76576;SDS011;65441;44.748;37.600;2023-03-13T13:57:33;4.13;;;1.40;;
76576;SDS011;65441;44.748;37.600;2023-03-13T14:02:47;4.22;;;1.58;;
76576;SDS011;65441;44.748;37.600;2023-03-13T14:05:19;4.03;;;1.70;;
76576;SDS011;65441;44.748;37.600;2023-03-13T14:07:54;4.63;;;1.70;;
76576;SDS011;65441;44.748;37.600;2023-03-13T14:10:33;3.42;;;1.40;;
76576;SDS011;65441;44.748;37.600;2023-03-13T14:13:14;4.88;;;1.92;;
76576;SDS011;65441;44.748;37.600;2023-03-13T14:15:44;5.78;;;1.55;;
76576;SDS011;65441;44.748;37.600;2023-03-13T14:18:17;5.38;;;1.80;;
76576;SDS011;65441;44.748;37.600;2023-03-13T14:20:52;4.70;;;1.70;;
76576;SDS011;65441;44.748;37.600;2023-03-13T14:23:33;5.47;;;1.90;;
76576;SDS011;65441;44.748;37.600;2023-03-13T14:26:09;4.97;;;2.17;;
76576;SDS011;65441;44.748;37.600;2023-03-13T14:28:41;5.43;;;2.08;;
76576;SDS011;65441;44.748;37.600;2023-03-13T14:31:20;9.85;;;2.10;;
76576;SDS011;65441;44.748;37.600;2023-03-13T14:33:53;6.65;;;1.88;;
76576;SDS011;65441;44.748;37.600;2023-03-13T14:36:23;5.88;;;2.10;;
76576;SDS011;65441;44.748;37.600;2023-03-13T14:38:53;4.82;;;1.90;;
76576;SDS011;65441;44.748;37.600;2023-03-13T14:41:27;4.57;;;1.90;;
76576;SDS011;65441;44.748;37.600;2023-03-13T14:44:03;5.20;;;1.70;;
76576;SDS011;65441;44.748;37.600;2023-03-13T14:46:33;5.07;;;2.00;;
76576;SDS011;65441;44.748;37.600;2023-03-13T14:49:05;9.95;;;2.10;;
76576;SDS011;65441;44.748;37.600;2023-03-13T14:51:37;5.28;;;2.20;;
76576;SDS011;65441;44.748;37.600;2023-03-13T14:54:20;4.38;;;1.88;;
76576;SDS011;65441;44.748;37.600;2023-03-13T14:57:01;3.92;;;1.70;;
76576;SDS011;65441;44.748;37.600;2023-03-13T14:59:32;5.15;;;1.90;;
76576;SDS011;65441;44.748;37.600;2023-03-13T15:02:02;6.22;;;1.98;;
76576;SDS011;65441;44.748;37.600;2023-03-13T15:04:47;4.93;;;1.77;;
76576;SDS011;65441;44.748;37.600;2023-03-13T15:07:25;5.70;;;1.92;;
76576;SDS011;65441;44.748;37.600;2023-03-13T15:10:16;3.78;;;1.55;;
76576;SDS011;65441;44.748;37.600;2023-03-13T15:12:46;5.97;;;1.75;;
76576;SDS011;65441;44.748;37.600;2023-03-13T15:15:17;4.97;;;1.77;;
76576;SDS011;65441;44.748;37.600;2023-03-13T15:17:46;6.60;;;2.00;;
76576;SDS011;65441;44.748;37.600;2023-03-13T15:20:15;5.55;;;1.98;;
76576;SDS011;65441;44.748;37.600;2023-03-13T15:22:45;6.05;;;2.17;;
76576;SDS011;65441;44.748;37.600;2023-03-13T15:25:14;4.82;;;1.90;;
76576;SDS011;65441;44.748;37.600;2023-03-13T15:27:45;4.28;;;1.83;;
76576;SDS011;65441;44.748;37.600;2023-03-13T15:30:14;5.32;;;2.00;;
76576;SDS011;65441;44.748;37.600;2023-03-13T15:32:46;6.63;;;2.30;;
76576;SDS011;65441;44.748;37.600;2023-03-13T15:35:20;5.47;;;2.50;;
76576;SDS011;65441;44.748;37.600;2023-03-13T15:37:53;5.43;;;2.13;;
76576;SDS011;65441;44.748;37.600;2023-03-13T15:40:24;5.10;;;2.10;;
76576;SDS011;65441;44.748;37.600;2023-03-13T15:42:57;6.82;;;2.58;;
76576;SDS011;65441;44.748;37.600;2023-03-13T15:45:26;4.72;;;2.17;;
76576;SDS011;65441;44.748;37.600;2023-03-13T15:47:56;5.82;;;2.28;;
76576;SDS011;65441;44.748;37.600;2023-03-13T15:50:27;5.22;;;2.50;;